Česky Dansk Deutsch English Español Suomi Français Magyar Italiano Nederlands norsk Polski Português svenska Türkçe

 

Het Weer

Macon (Frankrijk)

04:45, 18 februari 2013 (GMT)

NWNNE
WE
SWSSE
Home            
Macon Amberieu Saint-Yan Lyon / Bron Lyon / Satolas St-Etienne Boutheon Dole Tavaux Geneve-Cointrin Vichy Dijon Chambery / Aix-Les-Bains Grenoble / St. Geoirs Clermont-Ferrand Besancon Lausanne Nevers Le Puy Chatillon-Sur-Seine Payerne Les Eplatures Neuchatel Avord Montlucon / Gueret

Om een weerknop op uw website of weblog te plaatsen, copieer onderstaande code en plak die in uw pagina. In het eerste vakje staat HTML-code, in het tweede vakje UBB-code.


Add to Google

Details

Wind speed:1 bf, 3 kn, 1.5 m/s, 3.5 miles/h, 5.6 km/h
Wind direction:Variable
Visibility: 2500 m, 2.5 km, 8202 ft, 1.6 miles
Clouds:Geschlossene Wolkendecke at 300 ft, 91 m
Het Weer:moderate mist
Gefühlte Temperatur:-2°C, 29°F
Dew-point:-1°C, 30°F
Atmospheric pressure:1017 hPa, 762.8 mmHg, 30.03 inHg, 1.004 atm
METAR:LFLM 180445Z VRB03KT 2500 BR OVC003 M00/M01 Q1017 RMK M3

Snelkoppelingen

Actuele weersinformatie van de hele wereld. Voeg locaties toe met het plus (+) symbool. Deze snelkoppelingen kunnen worden toegevoegd aan Google.

Lid van de Technetium groep

website free tracking
StatCounter NetStat W3C Validator

24-10-2020 08:35:40
astro.technetium.be money.technetium.be phote.technetium.be tafeltennistafel.technetium.be www.ligfiets.net